Amarillo, Texas
Current Conditions -  °F | °C
As of 8:53 PM on Tuesday 21 Oct 2014 (Local Time) from KAMA Reporting Station
Clear Clear  
Wind Chill: 63°   Ceiling: Unl
Heat Index: 63°   Visibility: 10mi
Dew Point: 48°   Wind: 10mph
Humidity: 58%   Direction: 160°SSE
Pressure: 30.07"   Gusts: NA
Location:  35.21°N, 101.83°W
Report Text: KAMA 220153Z 16009KT 10SM CLR 17/09 A3007 RMK AO2 SLP155 T01720089
Loading
Personal Weather Stations






























Interactive Weather Map New forecast layout! Learn more

10-Day Weather Forecast

Advertisements
Track Severe Weather on mobile